Time,TemperatureF,DewpointF,PressureIn,WindDirection,WindDirectionDegrees,WindSpeedMPH,WindSpeedGustMPH,Humidity,HourlyPrecipIn,Conditions,Clouds,dailyrainin,SoftwareType,DateUTC
2013-06-07 00:03:00,54.0,53.0,30.12,SE,136,0.0,0.0,97,0.00,,,0.00,,2013-06-07 04:03:00,
2013-06-07 00:12:00,54.0,53.0,30.12,SE,136,0.0,0.0,97,0.00,,,0.00,,2013-06-07 04:12:00,
2013-06-07 00:23:00,54.0,53.0,30.12,SE,136,0.0,0.0,97,0.00,,,0.00,,2013-06-07 04:23:00,
2013-06-07 00:33:00,54.0,53.0,30.12,SE,136,0.0,0.0,97,0.01,,,0.01,,2013-06-07 04:33:00,
2013-06-07 00:42:00,54.0,53.0,30.12,SE,136,0.0,0.0,97,0.01,,,0.01,,2013-06-07 04:42:00,
2013-06-07 00:53:00,54.0,53.0,30.11,SE,136,0.0,0.0,97,0.01,,,0.01,,2013-06-07 04:53:00,
2013-06-07 01:03:00,54.0,53.0,30.10,SE,136,0.0,0.0,97,0.04,,,0.04,,2013-06-07 05:03:00,
2013-06-07 01:12:00,54.0,53.0,30.10,SE,136,0.0,0.0,97,0.04,,,0.04,,2013-06-07 05:12:00,
2013-06-07 01:22:00,54.0,53.0,30.09,SE,136,0.0,0.0,97,0.06,,,0.06,,2013-06-07 05:22:00,
2013-06-07 01:32:00,54.0,53.0,30.08,SSE,155,0.0,0.0,97,0.08,,,0.09,,2013-06-07 05:32:00,
2013-06-07 01:42:00,54.0,53.0,30.08,SSE,155,0.0,0.0,97,0.08,,,0.09,,2013-06-07 05:42:00,
2013-06-07 01:52:00,54.0,53.0,30.08,East,82,0.0,0.0,98,0.10,,,0.11,,2013-06-07 05:52:00,
2013-06-07 02:02:00,54.0,53.0,30.08,East,101,0.0,0.0,98,0.08,,,0.12,,2013-06-07 06:02:00,
2013-06-07 02:12:00,54.0,53.0,30.08,East,101,0.0,0.0,98,0.08,,,0.12,,2013-06-07 06:12:00,
2013-06-07 02:22:00,54.0,53.0,30.08,East,101,0.0,0.0,98,0.05,,,0.12,,2013-06-07 06:22:00,
2013-06-07 02:32:00,54.0,53.0,30.08,ESE,117,0.0,0.0,98,0.03,,,0.13,,2013-06-07 06:32:00,
2013-06-07 02:42:00,54.0,53.0,30.08,ESE,117,0.0,0.0,98,0.03,,,0.13,,2013-06-07 06:42:00,
2013-06-07 02:52:00,54.0,53.0,30.08,ESE,117,0.0,0.0,98,0.02,,,0.13,,2013-06-07 06:52:00,
2013-06-07 03:02:00,54.0,53.0,30.07,ESE,117,0.0,0.0,98,0.02,,,0.14,,2013-06-07 07:02:00,
2013-06-07 03:12:00,54.0,53.0,30.07,ESE,117,0.0,0.0,98,0.02,,,0.14,,2013-06-07 07:12:00,
2013-06-07 03:22:00,54.0,53.0,30.07,ESE,117,0.0,0.0,98,0.02,,,0.14,,2013-06-07 07:22:00,
2013-06-07 03:32:00,54.0,53.0,30.06,ESE,119,0.0,0.0,98,0.01,,,0.14,,2013-06-07 07:32:00,
2013-06-07 03:42:00,54.0,53.0,30.06,ESE,119,0.0,0.0,98,0.01,,,0.14,,2013-06-07 07:42:00,
2013-06-07 03:52:00,54.0,53.0,30.06,SE,132,0.0,0.0,98,0.02,,,0.15,,2013-06-07 07:52:00,
2013-06-07 04:02:00,54.0,53.0,30.06,SE,132,0.0,0.0,98,0.01,,,0.15,,2013-06-07 08:02:00,
2013-06-07 04:12:00,54.0,53.0,30.06,SE,132,0.0,0.0,98,0.01,,,0.15,,2013-06-07 08:12:00,
2013-06-07 04:22:00,54.0,53.0,30.06,SW,216,0.0,0.0,98,0.01,,,0.15,,2013-06-07 08:22:00,
2013-06-07 04:32:00,54.0,53.0,30.06,SE,127,0.0,0.0,98,0.01,,,0.15,,2013-06-07 08:32:00,
2013-06-07 04:43:00,54.0,53.0,30.06,SE,127,0.0,0.0,98,0.01,,,0.15,,2013-06-07 08:43:00,
2013-06-07 04:52:00,54.0,53.0,30.05,SE,128,0.0,0.0,98,0.01,,,0.16,,2013-06-07 08:52:00,
2013-06-07 05:02:00,54.0,53.0,30.06,ESE,106,0.0,0.0,98,0.03,,,0.18,,2013-06-07 09:02:00,
2013-06-07 05:12:00,54.0,53.0,30.06,ESE,106,0.0,0.0,98,0.03,,,0.18,,2013-06-07 09:12:00,
2013-06-07 05:22:00,54.0,53.0,30.05,ESE,106,0.0,0.0,98,0.05,,,0.20,,2013-06-07 09:22:00,
2013-06-07 05:32:00,53.0,52.0,30.05,South,188,0.0,0.0,98,0.07,,,0.22,,2013-06-07 09:32:00,
2013-06-07 05:43:00,53.0,52.0,30.05,South,188,0.0,0.0,98,0.07,,,0.22,,2013-06-07 09:43:00,
2013-06-07 05:53:00,53.0,52.0,30.05,SSE,167,0.0,0.0,98,0.08,,,0.24,,2013-06-07 09:53:00,
2013-06-07 06:03:00,53.0,52.0,30.05,SSW,196,0.0,0.0,98,0.08,,,0.26,,2013-06-07 10:03:00,
2013-06-07 06:13:00,53.0,52.0,30.05,SSW,196,0.0,0.0,98,0.08,,,0.26,,2013-06-07 10:13:00,
2013-06-07 06:23:00,53.0,52.0,30.05,SSE,159,0.0,0.0,98,0.07,,,0.27,,2013-06-07 10:23:00,
2013-06-07 06:33:00,52.0,51.0,30.05,South,169,0.0,0.0,98,0.06,,,0.28,,2013-06-07 10:33:00,
2013-06-07 06:42:00,52.0,51.0,30.05,South,169,0.0,0.0,98,0.06,,,0.28,,2013-06-07 10:42:00,
2013-06-07 06:52:00,52.0,51.0,30.05,SSE,161,0.0,0.0,98,0.05,,,0.28,,2013-06-07 10:52:00,
2013-06-07 07:02:00,52.0,51.0,30.04,SSE,166,0.0,0.0,98,0.03,,,0.28,,2013-06-07 11:02:00,
2013-06-07 07:12:00,52.0,51.0,30.04,SSE,166,0.0,0.0,98,0.03,,,0.28,,2013-06-07 11:12:00,
2013-06-07 07:22:00,52.0,51.0,30.04,SE,137,0.0,0.0,98,0.03,,,0.31,,2013-06-07 11:22:00,
2013-06-07 07:32:00,52.0,51.0,30.05,South,189,0.0,0.0,98,0.04,,,0.32,,2013-06-07 11:32:00,
2013-06-07 07:42:00,52.0,51.0,30.05,South,189,0.0,0.0,98,0.04,,,0.32,,2013-06-07 11:42:00,
2013-06-07 07:52:00,52.0,51.0,30.04,South,182,0.0,0.0,98,0.04,,,0.33,,2013-06-07 11:52:00,
2013-06-07 08:02:00,52.0,51.0,30.04,SE,130,0.0,0.0,98,0.05,,,0.34,,2013-06-07 12:02:00,
2013-06-07 08:13:00,52.0,51.0,30.04,SE,130,0.0,0.0,98,0.05,,,0.34,,2013-06-07 12:13:00,
2013-06-07 08:22:00,53.0,52.0,30.03,South,184,0.0,0.0,98,0.04,,,0.35,,2013-06-07 12:22:00,
2013-06-07 08:32:00,53.0,52.0,30.04,SSW,201,0.0,0.0,98,0.04,,,0.36,,2013-06-07 12:32:00,
2013-06-07 08:42:00,53.0,52.0,30.04,SSW,201,0.0,0.0,98,0.04,,,0.36,,2013-06-07 12:42:00,
2013-06-07 08:52:00,53.0,52.0,30.04,SSE,164,0.0,0.0,98,0.04,,,0.37,,2013-06-07 12:52:00,
2013-06-07 09:02:00,54.0,53.0,30.04,South,172,0.0,0.0,98,0.03,,,0.37,,2013-06-07 13:02:00,
2013-06-07 09:13:00,54.0,53.0,30.04,South,172,0.0,0.0,98,0.03,,,0.37,,2013-06-07 13:13:00,
2013-06-07 09:22:00,54.0,54.0,30.04,South,178,0.0,0.0,99,0.03,,,0.38,,2013-06-07 13:22:00,
2013-06-07 09:32:00,54.0,54.0,30.04,East,101,0.0,0.0,99,0.04,,,0.40,,2013-06-07 13:32:00,
2013-06-07 09:43:00,54.0,54.0,30.04,East,101,0.0,0.0,99,0.04,,,0.40,,2013-06-07 13:43:00,
2013-06-07 09:52:00,55.0,55.0,30.04,SSE,165,0.0,0.0,99,0.03,,,0.40,,2013-06-07 13:52:00,
2013-06-07 10:03:00,55.0,55.0,30.04,SSE,151,0.0,0.0,99,0.05,,,0.42,,2013-06-07 14:03:00,
2013-06-07 10:13:00,55.0,55.0,30.04,SSE,151,0.0,0.0,99,0.05,,,0.42,,2013-06-07 14:13:00,
2013-06-07 10:23:00,55.0,55.0,30.04,SSE,156,0.0,0.0,99,0.08,,,0.46,,2013-06-07 14:23:00,
2013-06-07 10:33:00,55.0,55.0,30.04,ESE,107,0.0,0.0,99,0.10,,,0.50,,2013-06-07 14:33:00,
2013-06-07 10:42:00,55.0,55.0,30.04,ESE,107,0.0,0.0,99,0.10,,,0.50,,2013-06-07 14:42:00,
2013-06-07 10:52:00,55.0,55.0,30.03,SE,128,0.0,0.0,99,0.13,,,0.53,,2013-06-07 14:52:00,
2013-06-07 11:03:00,56.0,56.0,30.04,SSE,161,0.0,0.0,99,0.14,,,0.56,,2013-06-07 15:03:00,
2013-06-07 11:12:00,56.0,56.0,30.04,SSE,161,0.0,0.0,99,0.14,,,0.56,,2013-06-07 15:12:00,
2013-06-07 11:23:00,56.0,56.0,30.03,South,186,0.0,0.0,99,0.12,,,0.57,,2013-06-07 15:23:00,
2013-06-07 11:33:00,56.0,56.0,30.03,SSE,160,0.0,0.0,99,0.10,,,0.60,,2013-06-07 15:33:00,
2013-06-07 11:43:00,56.0,56.0,30.03,SSE,160,0.0,0.0,99,0.10,,,0.60,,2013-06-07 15:43:00,
2013-06-07 11:53:00,57.0,57.0,30.03,SSE,168,0.0,0.0,99,0.08,,,0.61,,2013-06-07 15:53:00,
2013-06-07 12:03:00,57.0,57.0,30.03,SE,128,0.0,0.0,99,0.06,,,0.62,,2013-06-07 16:03:00,
2013-06-07 12:13:00,57.0,57.0,30.03,SE,128,0.0,0.0,99,0.06,,,0.62,,2013-06-07 16:13:00,
2013-06-07 12:22:00,57.0,57.0,30.03,SSW,213,0.0,0.0,99,0.05,,,0.63,,2013-06-07 16:22:00,
2013-06-07 12:33:00,57.0,57.0,30.03,SSE,159,0.0,0.0,99,0.04,,,0.64,,2013-06-07 16:33:00,
2013-06-07 12:43:00,57.0,57.0,30.03,SSE,159,0.0,0.0,99,0.04,,,0.64,,2013-06-07 16:43:00,
2013-06-07 12:52:00,57.0,57.0,30.02,South,169,0.0,0.0,99,0.04,,,0.65,,2013-06-07 16:52:00,
2013-06-07 13:03:00,58.0,58.0,30.02,SE,135,0.0,0.0,99,0.05,,,0.67,,2013-06-07 17:03:00,
2013-06-07 13:13:00,58.0,58.0,30.02,SE,135,0.0,0.0,99,0.05,,,0.67,,2013-06-07 17:13:00,
2013-06-07 13:23:00,58.0,58.0,30.02,SSE,164,0.0,0.0,99,0.09,,,0.72,,2013-06-07 17:23:00,
2013-06-07 13:32:00,58.0,58.0,30.01,SSW,198,0.0,0.0,99,0.17,,,0.81,,2013-06-07 17:32:00,
2013-06-07 13:43:00,58.0,58.0,30.01,SSW,198,0.0,0.0,99,0.17,,,0.81,,2013-06-07 17:43:00,
2013-06-07 13:52:00,58.0,58.0,30.01,SSE,153,0.0,0.0,99,0.27,,,0.92,,2013-06-07 17:52:00,
2013-06-07 14:20:00,58.0,58.0,30.00,SSW,198,0.0,0.0,99,0.34,,,1.01,,2013-06-07 18:20:00,
2013-06-07 14:27:00,58.0,58.0,29.99,South,170,0.0,0.0,99,0.36,,,1.09,,2013-06-07 18:27:00,
2013-06-07 14:37:00,58.0,58.0,29.99,South,182,0.0,0.0,99,0.35,,,1.15,,2013-06-07 18:37:00,
2013-06-07 14:45:00,58.0,58.0,29.99,South,182,0.0,0.0,99,0.35,,,1.15,,2013-06-07 18:45:00,
2013-06-07 14:56:00,58.0,58.0,29.98,SSE,156,0.0,0.0,99,0.33,,,1.25,,2013-06-07 18:56:00,
2013-06-07 15:08:00,58.0,58.0,29.98,SE,124,0.0,0.0,99,0.32,,,1.33,,2013-06-07 19:08:00,
2013-06-07 15:15:00,58.0,58.0,29.98,SE,124,0.0,0.0,99,0.32,,,1.33,,2013-06-07 19:15:00,
2013-06-07 15:29:00,58.0,58.0,29.97,ESE,121,0.0,0.0,99,0.28,,,1.38,,2013-06-07 19:29:00,
2013-06-07 15:38:00,58.0,58.0,29.97,SSW,192,0.0,0.0,99,0.27,,,1.44,,2013-06-07 19:38:00,
2013-06-07 15:49:00,58.0,58.0,29.97,SSW,192,0.0,0.0,99,0.27,,,1.44,,2013-06-07 19:49:00,
2013-06-07 15:55:00,58.0,58.0,29.96,SW,229,0.0,0.0,99,0.26,,,1.52,,2013-06-07 19:55:00,
2013-06-07 16:08:00,58.0,58.0,29.96,SW,217,0.0,0.0,99,0.26,,,1.60,,2013-06-07 20:08:00,
2013-06-07 16:27:00,58.0,58.0,29.96,ENE,78,0.0,0.0,99,0.28,,,1.66,,2013-06-07 20:27:00,
2013-06-07 16:39:00,58.0,58.0,29.96,ESE,121,0.0,0.0,99,0.26,,,1.70,,2013-06-07 20:39:00,
2013-06-07 16:48:00,58.0,58.0,29.96,ESE,121,0.0,0.0,99,0.26,,,1.70,,2013-06-07 20:48:00,
2013-06-07 16:56:00,58.0,58.0,29.95,SE,138,0.0,0.0,99,0.22,,,1.74,,2013-06-07 20:56:00,
2013-06-07 17:07:00,58.0,58.0,29.94,South,180,0.0,0.0,99,0.17,,,1.77,,2013-06-07 21:07:00,
2013-06-07 17:20:00,58.0,58.0,29.94,South,180,0.0,0.0,99,0.17,,,1.77,,2013-06-07 21:20:00,
2013-06-07 17:29:00,58.0,58.0,29.94,ENE,62,0.0,0.0,99,0.17,,,1.83,,2013-06-07 21:29:00,
2013-06-07 17:40:00,58.0,58.0,29.93,SSW,204,0.0,0.0,99,0.19,,,1.89,,2013-06-07 21:40:00,
2013-06-07 17:56:00,58.0,58.0,29.93,South,182,0.0,0.0,99,0.22,,,1.96,,2013-06-07 21:56:00,
2013-06-07 18:09:00,57.0,56.0,29.92,South,170,0.0,0.0,98,0.26,,,2.04,,2013-06-07 22:09:00,
2013-06-07 18:23:00,57.0,56.0,29.92,South,170,0.0,0.0,98,0.26,,,2.04,,2013-06-07 22:23:00,
2013-06-07 18:28:00,57.0,56.0,29.92,SE,146,0.0,0.0,98,0.26,,,2.09,,2013-06-07 22:28:00,
2013-06-07 18:39:00,56.0,56.0,29.91,SE,139,0.0,0.0,99,0.25,,,2.14,,2013-06-07 22:39:00,
2013-06-07 18:48:00,56.0,56.0,29.91,SE,139,0.0,0.0,99,0.25,,,2.14,,2013-06-07 22:48:00,
2013-06-07 18:56:00,56.0,56.0,29.91,SSE,163,0.0,0.0,99,0.22,,,2.18,,2013-06-07 22:56:00,
2013-06-07 19:10:00,56.0,55.0,29.89,SE,146,0.0,0.0,98,0.17,,,2.21,,2013-06-07 23:10:00,
2013-06-07 19:31:00,55.0,54.0,29.88,SE,145,0.0,0.0,98,0.13,,,2.23,,2013-06-07 23:31:00,
2013-06-07 19:39:00,55.0,54.0,29.88,South,185,0.0,0.0,98,0.10,,,2.24,,2013-06-07 23:39:00,
2013-06-07 19:50:00,55.0,54.0,29.88,South,185,0.0,0.0,98,0.10,,,2.24,,2013-06-07 23:50:00,
2013-06-07 19:57:00,54.0,53.0,29.86,South,190,0.0,0.0,98,0.09,,,2.27,,2013-06-07 23:57:00,
2013-06-07 20:14:00,54.0,53.0,29.88,ESE,102,0.0,0.0,98,0.13,,,2.34,,2013-06-08 00:14:00,
2013-06-07 20:29:00,54.0,53.0,29.86,ESE,106,0.0,0.0,98,0.19,,,2.42,,2013-06-08 00:29:00,
2013-06-07 20:35:00,54.0,53.0,29.87,SSE,159,0.0,0.0,98,0.22,,,2.46,,2013-06-08 00:35:00,
2013-06-07 20:45:00,54.0,53.0,29.87,SSE,159,0.0,0.0,98,0.22,,,2.46,,2013-06-08 00:45:00,
2013-06-07 20:56:00,53.0,53.0,29.88,ESE,117,0.0,0.0,99,0.28,,,2.57,,2013-06-08 00:56:00,
2013-06-07 21:08:00,53.0,53.0,29.87,SSE,161,0.0,0.0,99,0.31,,,2.65,,2013-06-08 01:08:00,
2013-06-07 21:19:00,53.0,53.0,29.87,SSE,161,0.0,0.0,99,0.31,,,2.65,,2013-06-08 01:19:00,
2013-06-07 21:29:00,53.0,52.0,29.87,SSE,160,0.0,0.0,98,0.27,,,2.69,,2013-06-08 01:29:00,
2013-06-07 21:39:00,53.0,53.0,29.88,South,175,0.0,0.0,99,0.27,,,2.73,,2013-06-08 01:39:00,
2013-06-07 21:57:00,53.0,53.0,29.87,SSE,150,0.0,0.0,99,0.18,,,2.76,,2013-06-08 01:57:00,
2013-06-07 22:15:00,53.0,53.0,29.86,SE,127,0.0,0.0,99,0.16,,,2.81,,2013-06-08 02:15:00,
2013-06-07 22:29:00,53.0,53.0,29.85,SSE,167,0.0,0.0,99,0.17,,,2.86,,2013-06-08 02:29:00,
2013-06-07 22:36:00,52.0,52.0,29.85,SSE,167,0.0,0.0,99,0.17,,,2.90,,2013-06-08 02:36:00,
2013-06-07 22:48:00,52.0,52.0,29.85,SSE,167,0.0,0.0,99,0.17,,,2.90,,2013-06-08 02:48:00,
2013-06-07 22:54:00,52.0,52.0,29.83,ESE,119,0.0,0.0,99,0.17,,,2.93,,2013-06-08 02:54:00,
2013-06-07 23:11:00,52.0,52.0,29.83,SSE,148,0.0,0.0,99,0.15,,,2.96,,2013-06-08 03:11:00,
2013-06-07 23:18:00,52.0,52.0,29.83,SSE,148,0.0,0.0,99,0.15,,,2.96,,2013-06-08 03:18:00,
2013-06-07 23:38:00,52.0,52.0,29.82,SSE,159,0.0,0.0,99,0.12,,,3.02,,2013-06-08 03:38:00,
2013-06-07 23:52:00,52.0,52.0,29.82,SSE,159,0.0,0.0,99,0.12,,,3.02,,2013-06-08 03:52:00,